Time;durP1;ratioP1;P1;durP2;ratioP2;P2;SDS_P1;SDS_P2;PMS_P1;PMS_P2;Temp;Humidity;BMP_temperature;BMP_pressure;BME280_temperature;BME280_humidity;BME280_pressure;Samples;Min_cycle;Max_cycle;Signal;HPM_P1;HPM_P2
2021/12/29 00:00:14;;;;;;;15.10;10.93;;;8.60;88.00;;;;;;5011624;28;20216;-54
2021/12/29 00:02:41;;;;;;;13.27;9.90;;;8.60;86.40;;;;;;5012118;28;20221;-58
2021/12/29 00:05:09;;;;;;;13.63;10.77;;;8.60;84.90;;;;;;5011928;28;20206;-57
2021/12/29 00:07:36;;;;;;;15.50;11.37;;;8.60;84.80;;;;;;5011693;28;20230;-57
2021/12/29 00:10:03;;;;;;;13.53;9.83;;;8.60;83.10;;;;;;5011548;28;20212;-57
2021/12/29 00:12:34;;;;;;;13.77;11.40;;;8.60;81.60;;;;;;5012001;28;20217;-55
2021/12/29 00:15:02;;;;;;;15.67;11.93;;;8.60;79.90;;;;;;5011708;28;20692;-59
2021/12/29 00:17:29;;;;;;;17.40;13.43;;;8.60;76.60;;;;;;5011560;28;20216;-58
2021/12/29 00:19:55;;;;;;;16.30;11.30;;;8.60;77.40;;;;;;5011613;28;20212;-54
2021/12/29 00:22:22;;;;;;;16.23;12.07;;;8.60;76.60;;;;;;5011778;28;20214;-56
2021/12/29 00:24:49;;;;;;;15.97;12.63;;;8.60;75.60;;;;;;5011805;28;20208;-56
2021/12/29 00:27:15;;;;;;;15.60;11.40;;;8.60;73.30;;;;;;5011712;28;20212;-55
2021/12/29 00:29:42;;;;;;;16.33;13.13;;;8.60;70.80;;;;;;5011701;28;20263;-56
2021/12/29 00:32:10;;;;;;;17.07;13.70;;;8.50;69.30;;;;;;5011807;28;20210;-56
2021/12/29 00:34:37;;;;;;;16.63;13.03;;;8.60;70.60;;;;;;5011535;28;20235;-55
2021/12/29 00:37:04;;;;;;;16.73;12.03;;;8.60;70.80;;;;;;5011132;28;20265;-57
2021/12/29 00:39:31;;;;;;;17.90;14.07;;;8.60;70.50;;;;;;5011495;28;20244;-55
2021/12/29 00:41:57;;;;;;;18.53;13.83;;;8.60;69.90;;;;;;5011587;28;20224;-58
2021/12/29 00:44:24;;;;;;;20.70;14.10;;;8.60;68.40;;;;;;5011544;28;20205;-57
2021/12/29 00:46:53;;;;;;;18.50;13.67;;;8.60;65.80;;;;;;5011569;28;20229;-56
2021/12/29 00:49:22;;;;;;;18.90;13.13;;;8.60;63.70;;;;;;5011626;28;20263;-56
2021/12/29 00:51:50;;;;;;;16.87;12.93;;;8.50;61.70;;;;;;5011618;28;20210;-54
2021/12/29 00:54:16;;;;;;;17.53;12.63;;;8.60;61.40;;;;;;5011487;28;20638;-57
2021/12/29 00:56:44;;;;;;;14.00;9.87;;;8.50;59.90;;;;;;5011063;28;20209;-55
2021/12/29 00:59:11;;;;;;;18.30;12.37;;;8.50;58.60;;;;;;5011386;28;20225;-55
2021/12/29 01:01:38;;;;;;;15.00;11.60;;;8.60;57.00;;;;;;5011650;28;20215;-60
2021/12/29 01:04:05;;;;;;;14.83;10.87;;;8.50;55.00;;;;;;5011705;28;20774;-55
2021/12/29 01:06:33;;;;;;;17.93;11.60;;;8.50;53.20;;;;;;5011495;28;20215;-56
2021/12/29 01:09:00;;;;;;;17.13;12.80;;;8.50;52.40;;;;;;5011753;28;20275;-57
2021/12/29 01:11:26;;;;;;;14.43;11.47;;;8.50;53.30;;;;;;5013304;28;20202;-58
2021/12/29 01:13:53;;;;;;;14.57;10.67;;;8.60;54.70;;;;;;5015758;28;20218;-57
2021/12/29 01:16:38;;;;;;;12.70;9.60;;;8.60;55.10;;;;;;5014547;28;20729;-52
2021/12/29 01:19:08;;;;;;;14.77;11.20;;;8.60;54.90;;;;;;5014777;28;20573;-56
2021/12/29 01:21:39;;;;;;;13.23;9.87;;;8.50;53.90;;;;;;5014887;28;20221;-55
2021/12/29 01:24:07;;;;;;;14.93;10.43;;;8.50;53.60;;;;;;5014855;28;20217;-53
2021/12/29 01:26:34;;;;;;;10.83;7.77;;;8.50;55.00;;;;;;5014855;28;20206;-55
2021/12/29 01:29:00;;;;;;;12.47;8.57;;;8.50;54.80;;;;;;5014541;28;20900;-58
2021/12/29 01:31:27;;;;;;;16.40;10.37;;;8.50;53.80;;;;;;5014656;28;20220;-56
2021/12/29 01:33:54;;;;;;;13.83;10.27;;;8.50;53.90;;;;;;5014566;28;20676;-55
2021/12/29 01:36:21;;;;;;;14.93;9.83;;;8.50;53.90;;;;;;5014218;28;20275;-56
2021/12/29 01:38:49;;;;;;;11.80;9.07;;;8.50;53.10;;;;;;5014081;28;20237;-57
2021/12/29 01:41:16;;;;;;;11.53;9.20;;;8.50;51.30;;;;;;5014659;28;20217;-55
2021/12/29 01:43:42;;;;;;;12.13;8.77;;;8.50;50.40;;;;;;5014213;28;20210;-56
2021/12/29 01:46:09;;;;;;;11.97;9.27;;;8.50;49.20;;;;;;5014363;28;20218;-59
2021/12/29 01:48:36;;;;;;;11.50;8.33;;;8.50;48.80;;;;;;5014455;28;20606;-57
2021/12/29 01:51:03;;;;;;;11.17;7.37;;;8.50;49.70;;;;;;5014223;28;20213;-59
2021/12/29 01:53:32;;;;;;;10.43;7.93;;;8.50;51.20;;;;;;5014227;28;20217;-57
2021/12/29 01:56:00;;;;;;;10.97;7.60;;;8.40;50.70;;;;;;5013878;28;20236;-58
2021/12/29 01:58:28;;;;;;;13.37;9.00;;;8.40;52.40;;;;;;5013906;28;20296;-56
2021/12/29 02:00:58;;;;;;;9.07;7.07;;;8.40;54.50;;;;;;5014042;28;20304;-57
2021/12/29 02:03:25;;;;;;;11.27;8.37;;;8.40;54.60;;;;;;5014329;28;20213;-57
2021/12/29 02:05:53;;;;;;;13.93;8.97;;;8.40;53.50;;;;;;5013872;28;20210;-55
2021/12/29 02:08:23;;;;;;;11.93;8.97;;;8.50;52.60;;;;;;5013722;28;20234;-57
2021/12/29 02:10:50;;;;;;;10.17;8.03;;;8.50;50.80;;;;;;5014188;28;20783;-58
2021/12/29 02:13:18;;;;;;;12.10;8.90;;;8.50;49.10;;;;;;5014492;28;20208;-57
2021/12/29 02:15:45;;;;;;;11.90;8.60;;;8.50;46.30;;;;;;5014217;28;20232;-57
2021/12/29 02:18:14;;;;;;;11.60;7.57;;;8.50;44.80;;;;;;5013495;28;20242;-58
2021/12/29 02:20:45;;;;;;;12.63;9.10;;;8.50;43.40;;;;;;5014017;28;20213;-58
2021/12/29 02:23:14;;;;;;;13.60;9.07;;;8.50;41.90;;;;;;5014669;28;20214;-56
2021/12/29 02:25:49;;;;;;;13.77;9.77;;;8.50;39.30;;;;;;5014537;28;20651;-57
2021/12/29 02:28:18;;;;;;;12.83;8.67;;;8.50;37.80;;;;;;5013539;28;20607;-59
2021/12/29 02:30:46;;;;;;;13.23;9.17;;;8.60;37.40;;;;;;5013705;28;20689;-57
2021/12/29 02:33:15;;;;;;;9.30;6.60;;;8.60;36.10;;;;;;5013676;28;20267;-57
2021/12/29 02:35:44;;;;;;;11.63;9.13;;;8.60;31.60;;;;;;5013200;28;20234;-56
2021/12/29 02:38:21;;;;;;;11.50;8.63;;;8.60;29.30;;;;;;5013174;28;20240;-55
2021/12/29 02:40:51;;;;;;;15.13;10.17;;;8.60;29.30;;;;;;5013416;28;20305;-55
2021/12/29 02:43:20;;;;;;;13.60;10.37;;;8.60;28.10;;;;;;5013323;28;20699;-53
2021/12/29 02:45:50;;;;;;;13.03;9.53;;;8.60;26.80;;;;;;5013501;28;20206;-57
2021/12/29 02:48:17;;;;;;;14.10;10.97;;;8.60;25.90;;;;;;5013330;28;20229;-58
2021/12/29 02:50:46;;;;;;;13.47;10.70;;;8.60;24.20;;;;;;5014404;28;20302;-56
2021/12/29 02:53:14;;;;;;;17.20;10.40;;;8.60;19.20;;;;;;5013805;28;20635;-57
2021/12/29 02:55:41;;;;;;;14.67;10.90;;;8.60;16.20;;;;;;5013504;28;20406;-58
2021/12/29 02:58:08;;;;;;;16.37;10.67;;;8.60;14.40;;;;;;5012730;28;20785;-57
2021/12/29 03:00:34;;;;;;;16.37;9.67;;;8.60;9.90;;;;;;5013129;28;20208;-57
2021/12/29 03:03:01;;;;;;;13.70;9.63;;;8.60;8.00;;;;;;5012948;28;20271;-57
2021/12/29 03:05:28;;;;;;;14.53;9.77;;;8.60;5.90;;;;;;5013746;28;20219;-58
2021/12/29 03:07:56;;;;;;;12.63;9.63;;;8.60;4.10;;;;;;5013026;28;20944;-57
2021/12/29 03:10:22;;;;;;;12.77;10.07;;;8.60;3.80;;;;;;5013665;28;20212;-58
2021/12/29 03:12:49;;;;;;;11.80;9.90;;;8.60;2.60;;;;;;5013431;28;20206;-59
2021/12/29 03:15:16;;;;;;;13.37;9.10;;;8.60;3.20;;;;;;5012774;28;20236;-59
2021/12/29 03:17:42;;;;;;;11.03;8.70;;;8.60;6.10;;;;;;5012952;28;20236;-55
2021/12/29 03:20:11;;;;;;;10.77;8.13;;;8.60;9.20;;;;;;5012937;28;20214;-60
2021/12/29 03:22:38;;;;;;;12.20;8.90;;;8.60;11.30;;;;;;5012710;28;20610;-55
2021/12/29 03:25:07;;;;;;;12.73;8.47;;;8.60;13.20;;;;;;5012718;28;20638;-57
2021/12/29 03:27:34;;;;;;;10.97;7.93;;;8.60;13.50;;;;;;5012500;28;20234;-60
2021/12/29 03:30:00;;;;;;;11.30;8.20;;;8.60;15.00;;;;;;5012272;28;20210;-59
2021/12/29 03:32:39;;;;;;;10.37;8.20;;;8.60;17.20;;;;;;5012488;28;20738;-54
2021/12/29 03:35:06;;;;;;;11.37;7.60;;;8.50;20.00;;;;;;5011997;28;20311;-57
2021/12/29 03:37:33;;;;;;;11.13;8.53;;;8.50;22.80;;;;;;5011887;28;20228;-58
2021/12/29 03:39:59;;;;;;;14.27;8.63;;;8.50;26.00;;;;;;5012601;28;20209;-56
2021/12/29 03:42:27;;;;;;;11.27;7.50;;;8.50;28.40;;;;;;5011984;28;20245;-57
2021/12/29 03:44:54;;;;;;;11.23;8.23;;;8.50;29.90;;;;;;5012480;28;20628;-59
2021/12/29 03:47:21;;;;;;;11.47;7.97;;;8.40;30.50;;;;;;5012014;28;20605;-57
2021/12/29 03:49:47;;;;;;;11.40;8.60;;;8.40;32.80;;;;;;5012466;28;20205;-56
2021/12/29 03:52:14;;;;;;;12.40;9.43;;;8.50;35.90;;;;;;5012221;28;20222;-57
2021/12/29 03:54:41;;;;;;;12.93;9.00;;;8.50;36.90;;;;;;5012288;28;20271;-55
2021/12/29 03:57:07;;;;;;;12.03;8.60;;;8.50;37.10;;;;;;5012263;28;20696;-57
2021/12/29 03:59:36;;;;;;;12.53;8.67;;;8.50;35.70;;;;;;5012282;28;20653;-57
2021/12/29 04:02:03;;;;;;;12.30;9.43;;;8.40;34.80;;;;;;5012293;28;20209;-59
2021/12/29 04:04:30;;;;;;;14.13;8.57;;;8.50;37.60;;;;;;5012072;28;20618;-54
2021/12/29 04:06:56;;;;;;;13.10;9.13;;;8.50;38.30;;;;;;5012215;28;20595;-60
2021/12/29 04:09:23;;;;;;;12.00;8.83;;;8.50;38.00;;;;;;5011868;28;20234;-58
2021/12/29 04:11:51;;;;;;;11.17;8.00;;;8.50;38.90;;;;;;5011502;28;20213;-57
2021/12/29 04:14:19;;;;;;;14.10;9.43;;;8.50;39.50;;;;;;5011966;28;20218;-58
2021/12/29 04:16:48;;;;;;;14.17;9.43;;;8.50;41.00;;;;;;5011507;28;20332;-60
2021/12/29 04:19:17;;;;;;;13.80;9.57;;;8.40;43.10;;;;;;5011774;28;20230;-57
2021/12/29 04:21:46;;;;;;;17.57;9.17;;;8.40;43.60;;;;;;5011520;28;20272;-57
2021/12/29 04:24:14;;;;;;;15.97;9.70;;;8.40;45.40;;;;;;5011575;28;20213;-58
2021/12/29 04:26:41;;;;;;;15.63;10.50;;;8.40;49.00;;;;;;5011678;28;20209;-57
2021/12/29 04:29:13;;;;;;;13.30;8.70;;;8.40;50.20;;;;;;5011856;28;20227;-57
2021/12/29 04:31:40;;;;;;;15.70;10.20;;;8.40;49.10;;;;;;5012032;28;20213;-58
2021/12/29 04:34:08;;;;;;;12.00;8.10;;;8.30;48.50;;;;;;5011498;28;20636;-57
2021/12/29 04:36:35;;;;;;;13.03;7.27;;;8.40;50.10;;;;;;5011238;28;20792;-57
2021/12/29 04:39:04;;;;;;;14.93;9.60;;;8.40;49.40;;;;;;5011290;28;20615;-53
2021/12/29 04:41:30;;;;;;;11.73;7.70;;;8.40;45.20;;;;;;5012168;28;20214;-56
2021/12/29 04:43:57;;;;;;;12.17;7.30;;;8.40;43.20;;;;;;5011276;28;20211;-58
2021/12/29 04:46:35;;;;;;;14.50;8.70;;;8.40;40.70;;;;;;5013327;28;20555;-55
2021/12/29 04:49:02;;;;;;;12.40;7.63;;;8.40;38.30;;;;;;5015669;28;20245;-59
2021/12/29 04:51:35;;;;;;;13.87;8.20;;;8.40;34.80;;;;;;5015461;28;20210;-57
2021/12/29 04:54:03;;;;;;;12.40;7.80;;;8.30;30.50;;;;;;5015579;28;20207;-56
2021/12/29 04:56:30;;;;;;;11.40;7.43;;;8.40;28.00;;;;;;5015030;28;20291;-54
2021/12/29 04:58:57;;;;;;;8.77;6.13;;;8.30;25.60;;;;;;5015498;28;20235;-56
2021/12/29 05:01:23;;;;;;;8.40;5.10;;;8.30;25.10;;;;;;5015173;28;20212;-54
2021/12/29 05:03:50;;;;;;;8.30;4.87;;;8.30;23.50;;;;;;5015244;28;20278;-56
2021/12/29 05:09:14;;;;;;;8.73;4.47;;;8.30;9.30;;;;;;4973886;28;20224;-58
2021/12/29 05:11:41;;;;;;;10.87;5.07;;;8.30;4.10;;;;;;5005271;28;20288;-57
2021/12/29 05:14:07;;;;;;;8.70;5.10;;;8.30;1.00;;;;;;5014925;28;20268;-57
2021/12/29 05:16:34;;;;;;;7.10;5.33;;;8.30;1.00;;;;;;5014795;28;20716;-59
2021/12/29 05:19:01;;;;;;;10.40;5.93;;;8.30;1.00;;;;;;5014619;28;20224;-57
2021/12/29 05:21:27;;;;;;;8.20;5.30;;;8.30;1.00;;;;;;5015172;28;20221;-57
2021/12/29 05:23:54;;;;;;;11.87;7.37;;;8.30;1.00;;;;;;5015009;28;20217;-60
2021/12/29 05:26:23;;;;;;;9.50;6.53;;;8.40;1.00;;;;;;5014917;28;20701;-55
2021/12/29 05:28:49;;;;;;;11.97;7.40;;;8.40;1.00;;;;;;5014474;28;20228;-57
2021/12/29 05:31:16;;;;;;;12.03;7.60;;;8.30;1.00;;;;;;5014978;28;20227;-58
2021/12/29 05:33:43;;;;;;;10.80;6.83;;;8.40;1.00;;;;;;5014929;28;20229;-59
2021/12/29 05:36:09;;;;;;;10.07;6.87;;;8.40;1.00;;;;;;5014667;28;20287;-61
2021/12/29 05:38:36;;;;;;;12.63;8.03;;;8.40;1.00;;;;;;5015101;28;20864;-60
2021/12/29 05:41:03;;;;;;;11.27;7.07;;;8.40;1.00;;;;;;5014993;28;20264;-61
2021/12/29 05:43:31;;;;;;;13.00;8.10;;;8.40;1.00;;;;;;5015262;28;20626;-59
2021/12/29 05:45:58;;;;;;;12.33;8.17;;;8.40;1.00;;;;;;5016369;28;20241;-60
2021/12/29 05:48:25;;;;;;;12.53;8.50;;;8.40;1.00;;;;;;5015299;28;20296;-59
2021/12/29 05:50:51;;;;;;;12.10;8.30;;;8.40;1.00;;;;;;5015921;28;20208;-61
2021/12/29 05:53:18;;;;;;;14.30;9.07;;;8.40;1.00;;;;;;5014496;28;20213;-60
2021/12/29 05:55:45;;;;;;;11.47;7.97;;;8.30;1.00;;;;;;5014114;28;20689;-59
2021/12/29 05:58:12;;;;;;;12.50;8.50;;;8.40;1.00;;;;;;5013382;28;20284;-61
2021/12/29 06:00:41;;;;;;;11.77;8.00;;;8.30;1.00;;;;;;5014476;28;20216;-61
2021/12/29 06:03:08;;;;;;;12.87;9.07;;;8.40;1.00;;;;;;5014209;28;20240;-60
2021/12/29 06:05:35;;;;;;;10.93;8.07;;;8.30;1.00;;;;;;5014496;28;20215;-61
2021/12/29 06:08:01;;;;;;;13.80;8.70;;;8.30;1.00;;;;;;5013839;28;20683;-59
2021/12/29 06:10:28;;;;;;;12.13;8.23;;;8.30;1.00;;;;;;5013850;28;20214;-59
2021/12/29 06:12:55;;;;;;;11.03;7.67;;;8.30;1.00;;;;;;5014245;28;20216;-61
2021/12/29 06:15:22;;;;;;;11.23;7.00;;;8.30;1.00;;;;;;5013870;28;20623;-61
2021/12/29 06:17:50;;;;;;;12.73;7.97;;;8.30;1.00;;;;;;5013755;28;20676;-61
2021/12/29 06:20:17;;;;;;;13.13;7.77;;;8.20;1.00;;;;;;5013915;28;20214;-61
2021/12/29 06:22:44;;;;;;;10.77;7.63;;;8.20;1.00;;;;;;5013917;28;20207;-60
2021/12/29 06:25:14;;;;;;;11.10;7.90;;;8.30;1.00;;;;;;5013618;28;20284;-61
2021/12/29 06:27:41;;;;;;;11.03;8.13;;;8.20;1.00;;;;;;5013873;28;20733;-60
2021/12/29 06:30:11;;;;;;;11.83;7.53;;;8.20;1.00;;;;;;5014222;28;20266;-61
2021/12/29 06:32:38;;;;;;;11.73;7.43;;;8.30;1.00;;;;;;5013925;28;20706;-60
2021/12/29 06:35:08;;;;;;;9.97;6.90;;;8.30;1.00;;;;;;5014326;28;20339;-59
2021/12/29 06:37:36;;;;;;;9.73;6.37;;;8.20;1.00;;;;;;5012890;28;20241;-59
2021/12/29 06:40:05;;;;;;;12.83;7.10;;;8.20;1.00;;;;;;5013800;28;20284;-60
2021/12/29 06:42:32;;;;;;;10.53;5.50;;;8.20;1.00;;;;;;5013563;28;20258;-60
2021/12/29 06:44:59;;;;;;;7.00;4.90;;;8.20;3.80;;;;;;5013678;28;20673;-58
2021/12/29 06:47:26;;;;;;;9.30;5.60;;;8.10;8.80;;;;;;5013584;28;20211;-61
2021/12/29 06:49:53;;;;;;;8.80;6.17;;;8.20;11.90;;;;;;5013411;28;20209;-61
2021/12/29 06:52:21;;;;;;;8.23;5.80;;;8.10;13.20;;;;;;5013348;28;20208;-61
2021/12/29 06:54:47;;;;;;;11.20;5.70;;;8.20;16.70;;;;;;5013737;28;20218;-60
2021/12/29 06:57:14;;;;;;;8.30;5.63;;;8.20;19.50;;;;;;5013740;28;20228;-59
2021/12/29 06:59:42;;;;;;;8.47;5.67;;;8.20;20.80;;;;;;5013550;28;20260;-59
2021/12/29 07:02:10;;;;;;;9.00;6.23;;;8.20;22.20;;;;;;5013834;28;20251;-60
2021/12/29 07:04:36;;;;;;;9.10;6.07;;;8.20;25.80;;;;;;5013499;28;20219;-58
2021/12/29 07:07:04;;;;;;;10.63;7.80;;;8.20;27.20;;;;;;5013710;28;20626;-61
2021/12/29 07:09:32;;;;;;;11.97;7.37;;;8.20;29.20;;;;;;5012159;28;20277;-61
2021/12/29 07:11:58;;;;;;;9.97;7.10;;;8.20;32.30;;;;;;5013021;28;20213;-61
2021/12/29 07:14:25;;;;;;;13.33;8.03;;;8.10;36.20;;;;;;5013095;28;20258;-61
2021/12/29 07:16:52;;;;;;;13.87;9.53;;;8.20;39.70;;;;;;5012513;28;20239;-61
2021/12/29 07:19:20;;;;;;;14.73;10.03;;;8.20;42.60;;;;;;5012847;28;20226;-65
2021/12/29 07:21:48;;;;;;;16.23;9.93;;;8.20;44.40;;;;;;5013230;28;20227;-61
2021/12/29 07:24:16;;;;;;;15.07;9.97;;;8.20;47.00;;;;;;5012886;28;20585;-61
2021/12/29 07:26:45;;;;;;;15.13;10.50;;;8.20;48.10;;;;;;5012770;28;20262;-61
2021/12/29 07:29:11;;;;;;;16.93;11.00;;;8.20;51.00;;;;;;5012366;28;20240;-61
2021/12/29 07:31:38;;;;;;;20.57;11.80;;;8.20;52.60;;;;;;5012646;28;20638;-60
2021/12/29 07:34:07;;;;;;;17.40;11.37;;;8.20;55.00;;;;;;5013357;28;20226;-60
2021/12/29 07:36:34;;;;;;;20.93;11.67;;;8.20;56.00;;;;;;5012980;28;20225;-60
2021/12/29 07:39:00;;;;;;;17.43;11.53;;;8.30;57.90;;;;;;5012697;28;20242;-61
2021/12/29 07:41:27;;;;;;;21.50;12.07;;;8.20;58.40;;;;;;5012490;28;20212;-61
2021/12/29 07:43:56;;;;;;;21.13;13.40;;;8.30;60.30;;;;;;5012228;28;20684;-61
2021/12/29 07:46:23;;;;;;;20.27;11.67;;;8.30;60.60;;;;;;5011984;28;20264;-61
2021/12/29 07:48:49;;;;;;;24.57;14.77;;;8.30;58.70;;;;;;5012348;28;20225;-60
2021/12/29 07:51:17;;;;;;;24.20;14.47;;;8.30;57.90;;;;;;5012181;28;20212;-60
2021/12/29 07:53:43;;;;;;;19.90;12.27;;;8.30;57.70;;;;;;5012344;28;20304;-61
2021/12/29 07:56:12;;;;;;;24.07;13.77;;;8.30;58.10;;;;;;5011703;28;20630;-61
2021/12/29 07:58:39;;;;;;;24.03;15.57;;;8.30;58.70;;;;;;5012050;28;20706;-60
2021/12/29 08:01:07;;;;;;;27.53;15.47;;;8.30;59.90;;;;;;5011701;28;20216;-62
2021/12/29 08:03:33;;;;;;;27.17;16.77;;;8.30;60.90;;;;;;5012639;28;20213;-60
2021/12/29 08:06:01;;;;;;;27.97;15.60;;;8.30;60.90;;;;;;5012054;28;20208;-60
2021/12/29 08:08:28;;;;;;;27.23;15.87;;;8.30;59.10;;;;;;5011947;28;20318;-61
2021/12/29 08:10:55;;;;;;;27.70;16.57;;;8.30;58.90;;;;;;5012250;28;20210;-62
2021/12/29 08:13:22;;;;;;;28.40;17.40;;;8.30;59.30;;;;;;5011773;28;20862;-61
2021/12/29 08:15:49;;;;;;;30.07;17.57;;;8.30;58.90;;;;;;5012433;28;20302;-61
2021/12/29 08:18:17;;;;;;;33.03;18.20;;;8.30;58.20;;;;;;5012266;28;20240;-61
2021/12/29 08:20:43;;;;;;;27.33;17.37;;;8.30;58.00;;;;;;5011975;28;20212;-62
2021/12/29 08:23:11;;;;;;;33.23;18.83;;;8.30;59.10;;;;;;5011998;28;20210;-62
2021/12/29 08:25:38;;;;;;;36.67;19.30;;;8.20;56.80;;;;;;5011711;28;20224;-62
2021/12/29 08:28:06;;;;;;;33.60;19.50;;;8.30;58.40;;;;;;5011516;28;20283;-62
2021/12/29 08:30:33;;;;;;;30.87;18.40;;;8.30;57.20;;;;;;5011450;28;20278;-63
2021/12/29 08:33:00;;;;;;;34.33;19.40;;;8.20;54.70;;;;;;5012393;28;20259;-62
2021/12/29 08:35:28;;;;;;;34.43;19.40;;;8.30;55.30;;;;;;5012402;28;20213;-60
2021/12/29 08:37:56;;;;;;;35.40;20.70;;;8.30;57.00;;;;;;5013637;28;20279;-61
2021/12/29 08:40:23;;;;;;;32.83;19.37;;;8.30;57.90;;;;;;5013351;28;20205;-61
2021/12/29 08:42:50;;;;;;;36.17;20.87;;;8.30;58.60;;;;;;5011896;28;20207;-61
2021/12/29 08:45:21;;;;;;;36.33;19.27;;;8.40;57.50;;;;;;5011427;28;20205;-60
2021/12/29 08:47:48;;;;;;;35.90;21.23;;;8.40;54.10;;;;;;5011186;28;20230;-61
2021/12/29 08:50:17;;;;;;;34.17;19.90;;;8.30;50.10;;;;;;5011900;28;20210;-60
2021/12/29 08:52:46;;;;;;;35.87;21.17;;;8.40;47.50;;;;;;5011410;28;20217;-62
2021/12/29 08:55:14;;;;;;;39.97;21.60;;;8.30;46.20;;;;;;5011214;28;20217;-61
2021/12/29 08:57:41;;;;;;;39.07;21.93;;;8.30;47.60;;;;;;5011327;28;20236;-61
2021/12/29 09:00:11;;;;;;;36.50;21.43;;;8.40;48.50;;;;;;5011436;28;20723;-61
2021/12/29 09:02:38;;;;;;;41.77;21.70;;;8.40;47.50;;;;;;5011420;28;20268;-61
2021/12/29 09:05:05;;;;;;;35.70;21.07;;;8.40;45.10;;;;;;5011105;28;20208;-61
2021/12/29 09:07:32;;;;;;;40.13;22.57;;;8.40;43.70;;;;;;5011235;28;20263;-61
2021/12/29 09:10:01;;;;;;;43.43;23.20;;;8.30;41.80;;;;;;5011747;28;20236;-61
2021/12/29 09:12:27;;;;;;;44.77;23.50;;;8.30;41.30;;;;;;5011580;28;20298;-61
2021/12/29 09:14:54;;;;;;;44.33;24.00;;;8.30;41.50;;;;;;5011082;28;20720;-61
2021/12/29 09:17:21;;;;;;;40.93;23.43;;;8.40;42.10;;;;;;5011709;28;20225;-62
2021/12/29 09:19:48;;;;;;;39.17;21.47;;;8.40;43.00;;;;;;5024657;28;20286;-62
2021/12/29 09:22:15;;;;;;;40.23;22.93;;;8.40;44.90;;;;;;5031499;28;20587;-60
2021/12/29 09:24:43;;;;;;;38.23;22.90;;;8.40;46.80;;;;;;5021094;28;20233;-62
2021/12/29 09:27:11;;;;;;;41.17;22.77;;;8.40;45.90;;;;;;5010421;28;20198;-62
2021/12/29 09:29:38;;;;;;;43.07;23.70;;;8.40;46.70;;;;;;5010878;28;20238;-61
2021/12/29 09:32:05;;;;;;;41.07;23.73;;;8.50;47.00;;;;;;5011734;28;20206;-60
2021/12/29 09:34:32;;;;;;;41.57;22.70;;;8.40;45.90;;;;;;5014106;28;20304;-62
2021/12/29 09:37:00;;;;;;;40.27;23.13;;;8.40;45.10;;;;;;5014193;28;20310;-58
2021/12/29 09:39:27;;;;;;;39.97;23.27;;;8.50;44.40;;;;;;5014359;28;20241;-61
2021/12/29 09:41:54;;;;;;;39.87;21.97;;;8.50;42.90;;;;;;5014519;28;20217;-56
2021/12/29 09:44:22;;;;;;;36.60;21.57;;;8.50;39.60;;;;;;5014131;28;20226;-60
2021/12/29 09:46:49;;;;;;;41.13;24.97;;;8.60;37.10;;;;;;5013861;28;20210;-61
2021/12/29 09:49:16;;;;;;;37.53;21.87;;;8.60;34.60;;;;;;5013851;28;20237;-62
2021/12/29 09:51:42;;;;;;;38.03;21.90;;;8.60;30.70;;;;;;5014230;28;20583;-61
2021/12/29 09:54:09;;;;;;;38.17;20.80;;;8.60;28.70;;;;;;5014353;28;20203;-60
2021/12/29 09:56:36;;;;;;;33.50;19.93;;;8.60;28.30;;;;;;5013599;28;20264;-61
2021/12/29 09:59:04;;;;;;;34.17;20.27;;;8.60;28.20;;;;;;5013819;28;20237;-61
2021/12/29 10:01:32;;;;;;;35.27;20.80;;;8.60;27.70;;;;;;5013634;28;20272;-61
2021/12/29 10:03:58;;;;;;;29.57;17.83;;;8.60;27.50;;;;;;5013541;28;20210;-61
2021/12/29 10:06:25;;;;;;;31.77;17.83;;;8.70;24.00;;;;;;5013362;28;20213;-61
2021/12/29 10:08:53;;;;;;;30.17;18.43;;;8.70;18.70;;;;;;5014170;28;20269;-61
2021/12/29 10:11:27;;;;;;;28.13;16.17;;;8.70;15.20;;;;;;5014122;28;20320;-61
2021/12/29 10:13:54;;;;;;;30.70;17.20;;;8.80;10.10;;;;;;5013743;28;20203;-61
2021/12/29 10:16:24;;;;;;;23.77;16.83;;;8.80;6.80;;;;;;5013067;28;20243;-57
2021/12/29 10:18:59;;;;;;;25.17;16.00;;;8.80;6.20;;;;;;5013343;28;20230;-58
2021/12/29 10:21:26;;;;;;;23.87;14.47;;;8.80;3.80;;;;;;5013866;28;20214;-60
2021/12/29 10:23:55;;;;;;;21.97;14.03;;;8.90;1.00;;;;;;5013721;28;20203;-60
2021/12/29 10:26:25;;;;;;;23.63;14.03;;;8.80;1.00;;;;;;5013241;28;20206;-61
2021/12/29 10:28:53;;;;;;;21.57;14.13;;;8.80;1.00;;;;;;5013214;28;20585;-60
2021/12/29 10:31:22;;;;;;;17.63;12.23;;;8.90;1.00;;;;;;5013708;28;20213;-60
2021/12/29 10:33:50;;;;;;;19.53;13.07;;;8.80;1.00;;;;;;5013733;28;20295;-60
2021/12/29 10:36:24;;;;;;;19.73;13.30;;;8.90;1.00;;;;;;5012406;28;20205;-59
2021/12/29 10:38:58;;;;;;;19.17;12.17;;;8.90;1.00;;;;;;5012965;28;20724;-61
2021/12/29 10:41:25;;;;;;;17.70;12.70;;;8.90;1.00;;;;;;5013315;28;20217;-64
2021/12/29 10:43:54;;;;;;;15.97;11.33;;;8.90;1.00;;;;;;5013785;28;20221;-56
2021/12/29 10:46:23;;;;;;;17.77;11.70;;;9.00;1.00;;;;;;5013365;28;20260;-58
2021/12/29 10:48:51;;;;;;;15.73;11.43;;;8.90;1.00;;;;;;5013546;28;20223;-59
2021/12/29 10:51:19;;;;;;;16.50;11.13;;;9.00;1.00;;;;;;5013334;28;20202;-60
2021/12/29 10:53:47;;;;;;;17.10;11.63;;;9.00;1.00;;;;;;5012856;28;20265;-59
2021/12/29 10:56:22;;;;;;;18.57;11.93;;;9.10;1.00;;;;;;5013503;28;20211;-59
2021/12/29 10:58:52;;;;;;;15.40;10.47;;;9.10;1.00;;;;;;5013670;28;20732;-59
2021/12/29 11:01:20;;;;;;;14.83;10.83;;;9.00;1.00;;;;;;5013685;28;20222;-58
2021/12/29 11:03:49;;;;;;;13.33;9.13;;;9.10;1.00;;;;;;5013192;28;20695;-58
2021/12/29 11:06:18;;;;;;;15.70;10.23;;;9.10;1.00;;;;;;5012442;28;20206;-57
2021/12/29 11:08:51;;;;;;;17.93;10.47;;;9.10;1.00;;;;;;5014041;28;20229;-58
2021/12/29 11:11:19;;;;;;;14.23;9.33;;;9.10;1.00;;;;;;5015129;28;20216;-55
2021/12/29 11:13:46;;;;;;;12.93;8.97;;;9.00;1.00;;;;;;5013165;28;20221;-58
2021/12/29 11:16:13;;;;;;;17.23;9.53;;;9.00;1.00;;;;;;5011836;28;20214;-58
2021/12/29 11:18:43;;;;;;;12.87;8.50;;;9.00;1.00;;;;;;5012105;28;20720;-57
2021/12/29 11:21:10;;;;;;;12.87;9.07;;;9.00;1.00;;;;;;5012492;28;20276;-57
2021/12/29 11:23:41;;;;;;;14.23;9.50;;;9.10;1.00;;;;;;5011967;28;20253;-60
2021/12/29 11:26:13;;;;;;;12.37;8.83;;;9.10;1.00;;;;;;5012108;28;20211;-59
2021/12/29 11:28:40;;;;;;;11.83;8.80;;;9.20;1.00;;;;;;5012174;28;20230;-56
2021/12/29 11:31:11;;;;;;;12.13;8.87;;;9.20;1.00;;;;;;5012105;28;20637;-56
2021/12/29 11:33:38;;;;;;;13.93;9.13;;;9.20;1.00;;;;;;5012290;28;20241;-59
2021/12/29 11:36:05;;;;;;;11.13;8.73;;;9.10;1.00;;;;;;5011828;28;20284;-59
2021/12/29 11:38:34;;;;;;;12.73;9.43;;;9.10;1.00;;;;;;5011958;28;20237;-59
2021/12/29 11:41:04;;;;;;;13.37;9.47;;;9.10;1.00;;;;;;5011810;28;20215;-59
2021/12/29 11:43:32;;;;;;;13.97;9.30;;;9.20;1.00;;;;;;5012167;28;20249;-59
2021/12/29 11:45:59;;;;;;;16.20;9.73;;;9.20;1.00;;;;;;5011201;28;20215;-59
2021/12/29 11:48:26;;;;;;;14.60;9.57;;;9.10;1.00;;;;;;5011694;28;20233;-59
2021/12/29 11:50:55;;;;;;;12.37;9.23;;;9.20;1.00;;;;;;5012086;28;20210;-59
2021/12/29 11:53:34;;;;;;;13.70;9.43;;;9.20;1.00;;;;;;5012231;28;20215;-58
2021/12/29 11:56:04;;;;;;;16.37;9.37;;;9.20;1.00;;;;;;5011436;28;20210;-57
2021/12/29 11:58:35;;;;;;;13.13;9.10;;;9.20;1.00;;;;;;5011702;28;20240;-58
2021/12/29 12:01:07;;;;;;;12.77;9.43;;;9.20;1.00;;;;;;5012321;28;20214;-58
2021/12/29 12:03:44;;;;;;;15.03;9.20;;;9.30;1.00;;;;;;5012466;28;20207;-60
2021/12/29 12:06:25;;;;;;;16.23;8.67;;;9.30;1.00;;;;;;5012043;28;20217;-60
2021/12/29 12:09:11;;;;;;;13.87;8.93;;;9.20;1.00;;;;;;5011596;28;20932;-59
2021/12/29 12:11:41;;;;;;;11.70;8.53;;;9.10;1.00;;;;;;5012155;28;20207;-58
2021/12/29 12:14:20;;;;;;;15.37;8.93;;;9.00;1.00;;;;;;5011764;28;20240;-62
2021/12/29 12:16:51;;;;;;;11.73;8.20;;;8.90;1.00;;;;;;5011378;28;20207;-57
2021/12/29 12:19:19;;;;;;;10.87;7.67;;;9.00;1.00;;;;;;5011744;28;20230;-59
2021/12/29 12:21:46;;;;;;;10.87;8.70;;;9.00;1.00;;;;;;5012571;28;20301;-61
2021/12/29 12:24:16;;;;;;;14.07;8.33;;;9.00;1.00;;;;;;5012889;28;20214;-60
2021/12/29 12:26:57;;;;;;;12.53;7.43;;;9.00;1.00;;;;;;5011415;28;20638;-60
2021/12/29 12:29:28;;;;;;;10.57;7.93;;;9.00;1.00;;;;;;5011861;28;20657;-59
2021/12/29 12:32:10;;;;;;;12.27;7.37;;;9.00;1.00;;;;;;5011579;28;20229;-60
2021/12/29 12:34:50;;;;;;;14.20;7.40;;;8.90;1.00;;;;;;5011611;28;20212;-60
2021/12/29 12:37:19;;;;;;;9.40;6.83;;;8.90;1.00;;;;;;5011374;28;20207;-60
2021/12/29 12:39:54;;;;;;;9.67;6.80;;;8.90;1.00;;;;;;5011840;28;20223;-59
2021/12/29 12:42:21;;;;;;;12.07;7.03;;;8.90;1.00;;;;;;5012194;28;20279;-60
2021/12/29 12:44:49;;;;;;;11.67;7.40;;;8.90;1.00;;;;;;5011189;28;20213;-54
2021/12/29 12:47:16;;;;;;;11.13;7.33;;;8.90;1.00;;;;;;5011254;28;20703;-59
2021/12/29 12:49:53;;;;;;;11.17;7.13;;;8.90;1.00;;;;;;5011570;28;20267;-59
2021/12/29 12:52:23;;;;;;;10.63;7.10;;;8.80;1.00;;;;;;5011779;28;20227;-58
2021/12/29 12:54:53;;;;;;;13.23;7.27;;;8.90;1.00;;;;;;5011946;28;20221;-59